createdAt,value
2022-07-29T00:01:49.312Z,1.50
2022-07-29T00:04:37.850Z,2.00
2022-07-29T00:07:23.644Z,1.83
2022-07-29T00:10:09.367Z,1.50
2022-07-29T00:12:54.680Z,1.58
2022-07-29T00:15:40.583Z,1.67
2022-07-29T00:18:25.992Z,1.75
2022-07-29T00:21:11.401Z,1.65
2022-07-29T00:23:56.780Z,1.60
2022-07-29T00:26:42.241Z,1.77
2022-07-29T00:29:35.351Z,1.83
2022-07-29T00:32:21.050Z,1.50
2022-07-29T00:35:25.736Z,1.73
2022-07-29T00:38:15.909Z,1.60
2022-07-29T00:41:01.219Z,1.60
2022-07-29T00:43:46.627Z,1.90
2022-07-29T00:46:31.924Z,1.90
2022-07-29T00:49:17.308Z,2.63
2022-07-29T00:52:09.134Z,1.58
2022-07-29T00:54:54.483Z,2.45
2022-07-29T00:57:41.122Z,1.60
2022-07-29T01:00:27.884Z,2.13
2022-07-29T01:03:13.283Z,2.42
2022-07-29T01:05:59.583Z,1.73
2022-07-29T01:08:46.512Z,1.83
2022-07-29T01:11:32.260Z,1.63
2022-07-29T01:14:18.537Z,1.65
2022-07-29T01:17:14.827Z,1.80
2022-07-29T01:20:13.596Z,1.60
2022-07-29T01:23:07.967Z,1.58
2022-07-29T01:26:20.613Z,1.65
2022-07-29T01:29:19.808Z,1.65
2022-07-29T01:32:08.833Z,1.40
2022-07-29T01:35:10.820Z,1.98
2022-07-29T01:38:09.215Z,2.05
2022-07-29T01:41:01.252Z,1.73
2022-07-29T01:44:03.662Z,1.55
2022-07-29T01:46:54.461Z,1.85
2022-07-29T01:49:44.166Z,1.70
2022-07-29T01:52:37.345Z,1.75
2022-07-29T01:55:29.176Z,1.33
2022-07-29T01:58:15.147Z,1.50
2022-07-29T02:01:01.442Z,1.38
2022-07-29T02:03:48.428Z,1.88
2022-07-29T02:06:35.869Z,1.90
2022-07-29T02:09:23.192Z,1.85
2022-07-29T02:12:09.908Z,1.70
2022-07-29T02:14:57.222Z,2.00
2022-07-29T02:17:47.856Z,2.00
2022-07-29T02:20:33.781Z,1.58
2022-07-29T02:23:23.926Z,1.65
2022-07-29T02:26:10.235Z,1.70
2022-07-29T02:28:57.358Z,2.22
2022-07-29T02:31:44.686Z,1.95
2022-07-29T02:34:30.978Z,1.85
2022-07-29T02:37:18.818Z,1.90
2022-07-29T02:40:06.882Z,2.15
2022-07-29T02:42:52.151Z,2.40
2022-07-29T02:45:37.773Z,1.92
2022-07-29T02:48:42.419Z,2.22
2022-07-29T02:51:44.867Z,2.25
2022-07-29T02:54:50.080Z,1.80
2022-07-29T02:57:54.020Z,2.50
2022-07-29T03:00:42.332Z,2.13
2022-07-29T03:03:32.311Z,1.98
2022-07-29T03:06:28.094Z,2.00
2022-07-29T03:09:16.969Z,1.92
2022-07-29T03:12:02.750Z,1.77
2022-07-29T03:14:49.644Z,1.70
2022-07-29T03:17:35.063Z,1.70
2022-07-29T03:20:21.330Z,1.80
2022-07-29T03:23:06.332Z,1.73
2022-07-29T03:25:51.991Z,1.60
2022-07-29T03:28:37.166Z,1.92
2022-07-29T03:31:25.059Z,1.83
2022-07-29T03:34:10.366Z,1.92
2022-07-29T03:36:55.602Z,1.92
2022-07-29T03:39:44.001Z,2.38
2022-07-29T03:42:34.487Z,2.45
2022-07-29T03:45:21.308Z,2.03
2022-07-29T03:48:10.651Z,1.85
2022-07-29T03:50:56.240Z,2.10
2022-07-29T03:53:42.027Z,2.03
2022-07-29T03:56:28.941Z,2.33
2022-07-29T03:59:16.108Z,2.47
2022-07-29T04:02:04.148Z,2.17
2022-07-29T04:04:49.485Z,2.30
2022-07-29T04:07:34.720Z,2.25
2022-07-29T04:10:26.895Z,1.95
2022-07-29T04:13:15.856Z,2.15
2022-07-29T04:16:01.347Z,2.22
2022-07-29T04:18:46.850Z,1.98
2022-07-29T04:21:32.263Z,1.80
2022-07-29T04:24:18.347Z,2.00
2022-07-29T04:27:03.839Z,1.95
2022-07-29T04:29:56.939Z,1.42
2022-07-29T04:32:42.932Z,2.45
2022-07-29T04:35:29.048Z,1.70
2022-07-29T04:38:15.924Z,2.22
2022-07-29T04:41:02.790Z,1.70
2022-07-29T04:43:48.447Z,1.83
2022-07-29T04:46:34.281Z,2.20
2022-07-29T04:49:19.796Z,2.20
2022-07-29T04:52:05.768Z,1.90
2022-07-29T04:54:50.925Z,2.13
2022-07-29T04:57:36.197Z,1.90
2022-07-29T05:00:21.605Z,2.10
2022-07-29T05:03:13.536Z,2.20
2022-07-29T05:05:58.809Z,1.85
2022-07-29T05:08:44.097Z,1.80
2022-07-29T05:11:30.549Z,1.92
2022-07-29T05:14:16.183Z,2.45
2022-07-29T05:17:01.753Z,4.78
2022-07-29T05:19:47.166Z,3.03
2022-07-29T05:22:32.646Z,2.30
2022-07-29T05:25:17.987Z,2.17
2022-07-29T05:28:03.235Z,2.55
2022-07-29T05:30:49.361Z,2.33
2022-07-29T05:33:37.104Z,2.65
2022-07-29T05:36:22.712Z,2.65
2022-07-29T05:39:08.264Z,2.22
2022-07-29T05:41:53.616Z,2.65
2022-07-29T05:44:40.129Z,2.25
2022-07-29T05:47:25.717Z,2.38
2022-07-29T05:50:10.784Z,2.45
2022-07-29T05:52:56.295Z,2.20
2022-07-29T05:55:41.565Z,3.25
2022-07-29T05:58:26.874Z,2.28
2022-07-29T06:01:12.456Z,2.50
2022-07-29T06:04:00.742Z,2.40
2022-07-29T06:06:46.607Z,2.08
2022-07-29T06:09:31.679Z,2.20
2022-07-29T06:12:17.014Z,2.40
2022-07-29T06:15:02.441Z,2.25
2022-07-29T06:18:00.766Z,1.80
2022-07-29T06:20:47.743Z,2.13
2022-07-29T06:23:32.949Z,1.75
2022-07-29T06:26:18.431Z,1.85
2022-07-29T06:29:16.737Z,1.98
2022-07-29T06:32:03.138Z,2.08
2022-07-29T06:34:48.867Z,2.20
2022-07-29T06:37:34.200Z,2.15
2022-07-29T06:40:40.307Z,1.90
2022-07-29T06:43:26.385Z,2.10
2022-07-29T06:46:14.382Z,1.98
2022-07-29T06:48:59.736Z,1.67
2022-07-29T06:51:45.221Z,1.83
2022-07-29T06:54:30.643Z,1.75
2022-07-29T06:57:16.056Z,2.33
2022-07-29T07:00:01.550Z,1.77
2022-07-29T07:02:46.906Z,1.52
2022-07-29T07:05:32.817Z,2.00
2022-07-29T07:08:18.426Z,3.10
2022-07-29T07:11:04.943Z,2.65
2022-07-29T07:13:50.416Z,2.15
2022-07-29T07:16:35.942Z,2.58
2022-07-29T07:19:21.372Z,2.53
2022-07-29T07:22:06.498Z,2.33
2022-07-29T07:24:52.047Z,2.35
2022-07-29T07:27:38.129Z,2.45
2022-07-29T07:30:23.774Z,2.42
2022-07-29T07:33:09.101Z,2.83
2022-07-29T07:35:54.695Z,2.30
2022-07-29T07:38:39.990Z,2.20
2022-07-29T07:41:25.438Z,1.90
2022-07-29T07:44:15.860Z,2.38
2022-07-29T07:47:03.904Z,1.83
2022-07-29T07:49:54.323Z,2.53
2022-07-29T07:52:55.423Z,2.35
2022-07-29T07:56:08.957Z,2.33
2022-07-29T07:58:47.904Z,2.03
2022-07-29T08:01:47.681Z,2.55
2022-07-29T08:04:41.295Z,2.47
2022-07-29T08:07:26.363Z,2.38
2022-07-29T08:10:11.944Z,1.85
2022-07-29T08:12:57.126Z,2.35
2022-07-29T08:15:43.957Z,2.20
2022-07-29T08:18:31.364Z,2.08
2022-07-29T08:21:17.361Z,2.65
2022-07-29T08:24:22.517Z,1.85
2022-07-29T08:27:26.942Z,2.03
2022-07-29T08:30:14.115Z,2.53
2022-07-29T08:33:00.341Z,2.20
2022-07-29T08:35:46.663Z,2.13
2022-07-29T08:38:31.916Z,2.10
2022-07-29T08:41:19.811Z,2.65
2022-07-29T08:44:05.142Z,2.28
2022-07-29T08:46:51.495Z,2.80
2022-07-29T08:49:38.385Z,2.47
2022-07-29T08:52:26.760Z,2.85
2022-07-29T08:55:11.997Z,2.28
2022-07-29T08:57:58.411Z,2.90
2022-07-29T09:00:50.547Z,2.55
2022-07-29T09:03:39.892Z,2.60
2022-07-29T09:06:28.825Z,2.60
2022-07-29T09:09:15.078Z,2.50
2022-07-29T09:12:00.955Z,2.60
2022-07-29T09:14:46.392Z,2.67
2022-07-29T09:17:50.080Z,2.83
2022-07-29T09:20:53.759Z,3.20
2022-07-29T09:23:40.657Z,2.75
2022-07-29T09:26:30.750Z,2.83
2022-07-29T09:29:20.928Z,2.85
2022-07-29T09:32:10.344Z,2.92
2022-07-29T09:35:15.307Z,3.22
2022-07-29T09:38:11.561Z,2.83
2022-07-29T09:41:05.378Z,2.60
2022-07-29T09:43:58.977Z,3.50
2022-07-29T09:47:13.844Z,3.10
2022-07-29T09:50:00.912Z,2.97
2022-07-29T09:52:51.941Z,3.47
2022-07-29T09:55:53.187Z,2.92
2022-07-29T09:58:38.418Z,2.85
2022-07-29T10:01:30.028Z,2.45
2022-07-29T10:04:15.547Z,2.78
2022-07-29T10:07:05.102Z,2.40
2022-07-29T10:09:55.283Z,2.65
2022-07-29T10:12:51.432Z,3.28
2022-07-29T10:15:41.615Z,3.67
2022-07-29T10:18:26.685Z,2.42
2022-07-29T10:21:22.511Z,2.47
2022-07-29T10:24:19.550Z,2.40
2022-07-29T10:27:06.816Z,2.63
2022-07-29T10:29:51.844Z,2.72
2022-07-29T10:33:12.351Z,2.70
2022-07-29T10:36:19.406Z,2.65
2022-07-29T10:39:25.560Z,2.95
2022-07-29T10:42:29.408Z,2.75
2022-07-29T10:45:18.712Z,3.15
2022-07-29T10:48:07.934Z,2.92
2022-07-29T10:54:43.680Z,2.65
2022-07-29T10:57:52.490Z,2.70
2022-07-29T11:00:37.458Z,2.97
2022-07-29T11:03:49.211Z,2.67
2022-07-29T11:07:06.151Z,2.80
2022-07-29T11:10:13.849Z,2.92
2022-07-29T11:12:59.461Z,2.33
2022-07-29T11:15:58.347Z,2.78
2022-07-29T11:19:13.377Z,2.90
2022-07-29T11:21:59.337Z,3.08
2022-07-29T11:24:49.319Z,2.88
2022-07-29T11:27:40.513Z,2.90
2022-07-29T11:30:53.306Z,2.80
2022-07-29T11:33:55.989Z,2.95
2022-07-29T11:37:12.481Z,3.08
2022-07-29T11:40:01.901Z,3.25
2022-07-29T11:42:51.962Z,3.28
2022-07-29T11:45:48.140Z,2.97
2022-07-29T11:48:34.758Z,2.60
2022-07-29T11:51:21.512Z,2.92
2022-07-29T11:54:27.877Z,2.97
2022-07-29T11:57:13.780Z,2.97
2022-07-29T12:00:09.468Z,2.97
2022-07-29T12:03:00.061Z,2.85
2022-07-29T12:05:48.267Z,2.80
2022-07-29T12:08:43.304Z,2.90
2022-07-29T12:11:29.780Z,2.65
2022-07-29T12:14:31.510Z,2.90
2022-07-29T12:20:24.587Z,3.25
2022-07-29T12:23:12.999Z,2.85
2022-07-29T12:25:59.987Z,2.85
2022-07-29T12:28:47.052Z,2.70
2022-07-29T12:31:43.379Z,2.95
2022-07-29T12:34:31.117Z,2.92
2022-07-29T12:37:17.321Z,3.63
2022-07-29T12:40:04.130Z,3.13
2022-07-29T12:43:13.075Z,3.35
2022-07-29T12:45:58.841Z,3.03
2022-07-29T12:48:44.821Z,4.20
2022-07-29T12:51:34.371Z,3.30
2022-07-29T12:54:19.607Z,4.93
2022-07-29T12:57:05.172Z,4.80
2022-07-29T13:00:06.548Z,4.78
2022-07-29T13:02:59.682Z,4.25
2022-07-29T13:05:49.336Z,5.32
2022-07-29T13:08:34.827Z,4.20
2022-07-29T13:11:48.190Z,4.40
2022-07-29T13:14:39.989Z,5.00
2022-07-29T13:17:28.261Z,4.50
2022-07-29T13:20:17.984Z,4.60
2022-07-29T13:23:03.292Z,5.22
2022-07-29T13:25:49.137Z,5.25
2022-07-29T13:28:35.172Z,4.25
2022-07-29T13:31:20.560Z,3.90
2022-07-29T13:34:05.903Z,3.80
2022-07-29T13:36:51.755Z,3.53
2022-07-29T13:39:38.297Z,3.38
2022-07-29T13:42:26.234Z,3.50
2022-07-29T13:45:24.505Z,3.42
2022-07-29T13:48:14.602Z,3.85
2022-07-29T13:51:00.137Z,3.40
2022-07-29T13:53:45.577Z,3.22
2022-07-29T13:56:31.210Z,3.30
2022-07-29T13:59:16.760Z,3.38
2022-07-29T14:02:02.311Z,3.47
2022-07-29T14:04:47.949Z,3.40
2022-07-29T14:07:33.261Z,2.97
2022-07-29T14:10:20.236Z,3.05
2022-07-29T14:13:05.709Z,3.10
2022-07-29T14:16:09.927Z,3.55
2022-07-29T14:18:55.698Z,2.85
2022-07-29T14:21:40.814Z,2.78
2022-07-29T14:24:26.572Z,2.75
2022-07-29T14:27:12.478Z,3.80
2022-07-29T14:29:59.950Z,3.10
2022-07-29T14:32:45.408Z,2.40
2022-07-29T14:35:30.909Z,2.83
2022-07-29T14:38:16.206Z,2.85
2022-07-29T14:41:01.832Z,2.80
2022-07-29T14:43:48.526Z,2.88
2022-07-29T14:46:33.995Z,2.55
2022-07-29T14:49:19.643Z,2.83
2022-07-29T14:52:05.833Z,2.75
2022-07-29T14:54:51.056Z,2.60
2022-07-29T14:57:36.320Z,2.58
2022-07-29T15:00:21.906Z,2.63
2022-07-29T15:03:11.092Z,2.72
2022-07-29T15:05:56.752Z,2.47
2022-07-29T15:08:42.546Z,3.33
2022-07-29T15:11:27.887Z,2.80
2022-07-29T15:14:13.640Z,2.95
2022-07-29T15:16:59.438Z,1.98
2022-07-29T15:19:46.175Z,2.53
2022-07-29T15:22:31.660Z,2.25
2022-07-29T15:25:17.276Z,2.38
2022-07-29T15:28:03.886Z,2.10
2022-07-29T15:30:49.311Z,1.73
2022-07-29T15:33:34.769Z,2.30
2022-07-29T15:36:50.293Z,2.45
2022-07-29T15:39:25.477Z,2.63
2022-07-29T15:42:10.900Z,2.58
2022-07-29T15:44:56.905Z,2.63
2022-07-29T15:47:42.056Z,2.55
2022-07-29T15:50:27.323Z,2.13
2022-07-29T15:53:12.716Z,2.20
2022-07-29T15:55:58.352Z,2.30
2022-07-29T15:58:43.788Z,2.85
2022-07-29T16:01:29.504Z,2.50
2022-07-29T16:04:15.420Z,2.38
2022-07-29T16:07:01.638Z,2.35
2022-07-29T16:09:52.524Z,2.45
2022-07-29T16:12:38.236Z,2.63
2022-07-29T16:15:23.651Z,2.42
2022-07-29T16:18:10.222Z,2.30
2022-07-29T16:20:55.635Z,2.78
2022-07-29T16:23:41.454Z,2.90
2022-07-29T16:26:27.394Z,2.88
2022-07-29T16:29:12.829Z,3.20
2022-07-29T16:31:58.601Z,2.70
2022-07-29T16:34:43.877Z,2.70
2022-07-29T16:37:33.547Z,4.15
2022-07-29T16:40:18.917Z,3.08
2022-07-29T16:43:04.240Z,3.05
2022-07-29T16:45:51.662Z,2.67
2022-07-29T16:48:38.693Z,3.00
2022-07-29T16:51:24.626Z,2.47
2022-07-29T16:54:10.714Z,2.65
2022-07-29T16:56:56.341Z,2.97
2022-07-29T16:59:43.409Z,2.70
2022-07-29T17:02:29.247Z,3.47
2022-07-29T17:05:15.711Z,3.38
2022-07-29T17:08:00.832Z,3.28
2022-07-29T17:10:46.403Z,3.15
2022-07-29T17:13:31.712Z,3.17
2022-07-29T17:16:17.355Z,3.42
2022-07-29T17:19:03.341Z,2.70
2022-07-29T17:21:49.344Z,3.05
2022-07-29T17:24:35.374Z,3.75
2022-07-29T17:27:21.006Z,3.22
2022-07-29T17:30:07.150Z,3.30
2022-07-29T17:32:52.603Z,3.72
2022-07-29T17:35:56.497Z,2.92
2022-07-29T17:38:41.792Z,3.42
2022-07-29T17:41:28.098Z,3.58
2022-07-29T17:44:13.639Z,3.55
2022-07-29T17:46:58.982Z,3.70
2022-07-29T17:49:45.625Z,3.42
2022-07-29T17:52:31.122Z,3.67
2022-07-29T17:55:16.601Z,3.58
2022-07-29T17:58:02.006Z,3.67
2022-07-29T18:00:48.377Z,4.25
2022-07-29T18:03:34.053Z,3.38
2022-07-29T18:06:19.966Z,3.67
2022-07-29T18:09:06.015Z,3.58
2022-07-29T18:11:51.714Z,4.05
2022-07-29T18:14:38.002Z,3.25
2022-07-29T18:17:52.913Z,3.80
2022-07-29T18:20:31.420Z,3.50
2022-07-29T18:23:16.979Z,4.10
2022-07-29T18:26:02.512Z,3.35
2022-07-29T18:28:48.562Z,3.33
2022-07-29T18:31:34.201Z,3.72
2022-07-29T18:34:19.772Z,3.40
2022-07-29T18:37:05.316Z,3.72
2022-07-29T18:39:50.627Z,2.97
2022-07-29T18:42:36.567Z,3.38
2022-07-29T18:45:22.348Z,3.90
2022-07-29T18:48:13.953Z,3.75
2022-07-29T18:50:59.652Z,3.25
2022-07-29T18:53:44.955Z,3.60
2022-07-29T18:56:30.877Z,3.15
2022-07-29T18:59:19.549Z,3.80
2022-07-29T19:02:04.992Z,3.30
2022-07-29T19:04:50.865Z,3.40
2022-07-29T19:07:36.994Z,2.90
2022-07-29T19:10:22.732Z,3.25
2022-07-29T19:13:08.678Z,3.00
2022-07-29T19:15:54.516Z,3.35
2022-07-29T19:18:40.354Z,4.13
2022-07-29T19:21:26.557Z,3.58
2022-07-29T19:24:15.432Z,3.63
2022-07-29T19:27:01.529Z,3.53
2022-07-29T19:29:46.904Z,3.60
2022-07-29T19:32:32.374Z,3.92
2022-07-29T19:35:32.879Z,3.08
2022-07-29T19:38:18.602Z,3.38
2022-07-29T19:41:04.043Z,3.50
2022-07-29T19:43:52.887Z,4.38
2022-07-29T19:46:38.840Z,4.00
2022-07-29T19:49:24.375Z,4.05
2022-07-29T19:52:10.908Z,3.97
2022-07-29T19:54:56.333Z,4.50
2022-07-29T19:57:42.721Z,4.57
2022-07-29T20:00:28.507Z,4.18
2022-07-29T20:03:15.325Z,4.15
2022-07-29T20:06:00.813Z,3.90
2022-07-29T20:08:46.261Z,3.88
2022-07-29T20:11:36.545Z,4.05
2022-07-29T20:14:23.125Z,3.30
2022-07-29T20:17:08.275Z,3.63
2022-07-29T20:19:54.003Z,3.22
2022-07-29T20:22:40.995Z,3.25
2022-07-29T20:25:26.310Z,3.10
2022-07-29T20:28:11.700Z,3.55
2022-07-29T20:30:57.100Z,3.25
2022-07-29T20:33:46.004Z,3.35
2022-07-29T20:36:32.108Z,4.30
2022-07-29T20:39:17.538Z,3.95
2022-07-29T20:42:03.301Z,3.45
2022-07-29T20:44:50.655Z,3.65
2022-07-29T20:47:35.911Z,3.35
2022-07-29T20:50:23.622Z,3.63
2022-07-29T20:53:09.430Z,3.58
2022-07-29T20:55:55.006Z,3.55
2022-07-29T20:58:40.880Z,2.92
2022-07-29T21:01:26.100Z,3.83
2022-07-29T21:04:11.379Z,3.40
2022-07-29T21:06:57.053Z,3.00
2022-07-29T21:09:42.747Z,4.05
2022-07-29T21:12:30.126Z,3.17
2022-07-29T21:15:16.301Z,3.85
2022-07-29T21:18:06.063Z,4.05
2022-07-29T21:20:51.719Z,3.72
2022-07-29T21:23:37.311Z,4.10
2022-07-29T21:26:22.684Z,3.97
2022-07-29T21:29:08.056Z,4.40
2022-07-29T21:31:53.450Z,4.25
2022-07-29T21:34:38.904Z,3.97
2022-07-29T21:37:27.023Z,4.45
2022-07-29T21:40:12.909Z,3.60
2022-07-29T21:42:58.106Z,3.70
2022-07-29T21:45:44.100Z,4.18
2022-07-29T21:48:29.769Z,3.92
2022-07-29T21:51:15.138Z,3.63
2022-07-29T21:54:00.510Z,3.33
2022-07-29T21:56:51.256Z,3.90
2022-07-29T21:59:37.082Z,3.35
2022-07-29T22:02:22.526Z,3.72
2022-07-29T22:05:08.539Z,3.75
2022-07-29T22:07:56.344Z,4.13
2022-07-29T22:10:42.793Z,3.53
2022-07-29T22:13:28.041Z,3.78
2022-07-29T22:16:15.013Z,3.80
2022-07-29T22:19:00.279Z,4.10
2022-07-29T22:21:47.130Z,4.07
2022-07-29T22:24:32.426Z,4.15
2022-07-29T22:27:17.722Z,4.05
2022-07-29T22:30:05.170Z,3.63
2022-07-29T22:32:50.282Z,4.05
2022-07-29T22:35:35.644Z,3.90
2022-07-29T22:38:21.046Z,3.88
2022-07-29T22:41:06.416Z,4.10
2022-07-29T22:43:51.728Z,3.72
2022-07-29T22:46:37.257Z,3.72
2022-07-29T22:49:22.929Z,3.80
2022-07-29T22:52:09.043Z,4.22
2022-07-29T22:54:54.316Z,3.80
2022-07-29T22:57:39.730Z,4.30
2022-07-29T23:00:25.769Z,4.68
2022-07-29T23:03:11.058Z,4.03
2022-07-29T23:05:56.513Z,4.90
2022-07-29T23:08:41.826Z,5.75
2022-07-29T23:11:27.406Z,4.95
2022-07-29T23:14:12.879Z,4.90
2022-07-29T23:16:58.724Z,5.50
2022-07-29T23:19:44.293Z,5.55
2022-07-29T23:22:30.130Z,4.38
2022-07-29T23:25:15.498Z,5.10
2022-07-29T23:28:01.121Z,5.80
2022-07-29T23:30:46.123Z,5.78
2022-07-29T23:33:31.488Z,5.25
2022-07-29T23:36:16.863Z,5.50
2022-07-29T23:39:02.399Z,5.88
2022-07-29T23:41:47.747Z,5.32
2022-07-29T23:44:33.142Z,4.88
2022-07-29T23:47:18.620Z,5.40
2022-07-29T23:50:05.390Z,4.60
2022-07-29T23:52:50.437Z,4.82
2022-07-29T23:55:39.047Z,4.90
2022-07-29T23:58:24.725Z,5.45
